Time;durP1;ratioP1;P1;durP2;ratioP2;P2;SDS_P1;SDS_P2;PMS_P1;PMS_P2;Temp;Humidity;BMP_temperature;BMP_pressure;BME280_temperature;BME280_humidity;BME280_pressure;Samples;Min_cycle;Max_cycle;Signal;HPM_P1;HPM_P2
2022/01/18 00:00:49;;;;;;;;;78.25;59.75;;;;;4.97;98.83;103520.22;5081937;27;45412;-69
2022/01/18 00:03:15;;;;;;;;;70.25;55.25;;;;;4.95;99.33;103505.53;5081480;27;45248;-70
2022/01/18 00:05:43;;;;;;;;;81.25;58.50;;;;;4.88;99.50;103507.84;5081573;28;45417;-71
2022/01/18 00:08:09;;;;;;;;;76.00;56.50;;;;;4.88;98.69;103509.56;5081672;27;45181;-71
2022/01/18 00:10:34;;;;;;;;;76.00;57.25;;;;;4.83;98.78;103508.50;5081571;27;45439;-71
2022/01/18 00:15:37;;;;;;;;;67.75;53.00;;;;;4.79;99.47;103496.28;5080649;27;45326;-71
2022/01/18 00:23:37;;;;;;;;;68.25;55.00;;;;;4.77;99.44;103498.81;5051950;28;45540;-71
2022/01/18 00:26:04;;;;;;;;;73.25;56.50;;;;;4.73;99.72;103509.81;5092464;27;47111;-71
2022/01/18 00:28:30;;;;;;;;;77.25;58.00;;;;;4.73;100.00;103514.06;5073298;28;45157;-70
2022/01/18 00:34:18;;;;;;;;;79.50;59.00;;;;;4.73;99.08;103501.19;5081270;27;45473;-71
2022/01/18 00:36:23;;;;;;;;;75.25;57.25;;;;;4.69;99.52;103510.50;5073207;28;46314;-70
2022/01/18 00:38:49;;;;;;;;;73.75;55.50;;;;;4.69;99.46;103499.31;5078561;27;45303;-71
2022/01/18 00:41:17;;;;;;;;;80.50;60.50;;;;;4.67;99.41;103486.38;5079258;27;45412;-71
2022/01/18 00:43:43;;;;;;;;;77.25;58.75;;;;;4.65;99.31;103497.44;5078520;27;45636;-70
2022/01/18 00:46:12;;;;;;;;;67.50;54.50;;;;;4.63;100.00;103504.22;5079002;28;46269;-69
2022/01/18 00:48:38;;;;;;;;;78.00;61.25;;;;;4.58;99.87;103494.59;5078790;28;45397;-70
2022/01/18 00:51:05;;;;;;;;;77.50;56.50;;;;;4.58;99.48;103486.88;5079111;28;45358;-70
2022/01/18 00:53:32;;;;;;;;;74.25;57.75;;;;;4.54;99.24;103503.00;5079101;28;45464;-69
2022/01/18 00:58:36;;;;;;;;;65.75;52.00;;;;;4.52;99.46;103493.47;5080751;27;45196;-70
2022/01/18 01:01:03;;;;;;;;;76.00;55.50;;;;;4.49;99.23;103486.50;5080730;27;45282;-70
2022/01/18 01:03:28;;;;;;;;;74.00;51.75;;;;;4.51;99.60;103502.00;5080862;27;45339;-70
2022/01/18 01:05:54;;;;;;;;;64.25;50.50;;;;;4.50;99.30;103502.84;5079323;28;46060;-69
2022/01/18 01:08:19;;;;;;;;;64.25;47.75;;;;;4.46;99.20;103488.94;5079619;28;45341;-70
2022/01/18 01:10:45;;;;;;;;;47.00;41.25;;;;;4.45;99.82;103486.31;5080547;27;45295;-70
2022/01/18 01:13:12;;;;;;;;;66.50;49.25;;;;;4.45;99.48;103492.34;5080153;27;45472;-70
2022/01/18 01:34:44;;;;;;;;;46.25;40.00;;;;;4.33;99.99;103490.94;5080539;27;45622;-71
2022/01/18 01:43:13;;;;;;;;;45.00;36.00;;;;;4.36;100.00;103502.25;5080255;28;45303;-70
2022/01/18 01:45:39;;;;;;;;;39.75;31.25;;;;;4.42;100.00;103496.50;5080260;28;45461;-70
2022/01/18 01:48:05;;;;;;;;;44.25;34.00;;;;;4.45;99.92;103501.75;5079952;27;45980;-70
2022/01/18 01:50:43;;;;;;;;;42.00;32.75;;;;;4.46;100.00;103498.38;5080173;28;45413;-69
2022/01/18 01:53:10;;;;;;;;;42.50;34.25;;;;;4.53;100.00;103498.69;5078683;28;45370;-70
2022/01/18 01:55:36;;;;;;;;;48.50;34.25;;;;;4.57;100.00;103490.25;5078845;28;45961;-69
2022/01/18 01:58:01;;;;;;;;;40.75;34.75;;;;;4.59;100.00;103495.47;5068401;27;45448;-69
2022/01/18 02:00:26;;;;;;;;;39.00;34.25;;;;;4.60;99.66;103497.22;5079894;27;45239;-69
2022/01/18 02:02:52;;;;;;;;;44.75;34.00;;;;;4.59;99.71;103495.47;5079708;27;45153;-70
2022/01/18 02:05:17;;;;;;;;;36.25;32.75;;;;;4.54;99.60;103490.13;5080000;27;45153;-70
2022/01/18 02:07:43;;;;;;;;;30.25;27.50;;;;;4.56;99.80;103493.66;5079542;28;45141;-68
2022/01/18 02:10:10;;;;;;;;;42.50;28.00;;;;;4.58;99.88;103501.44;5079674;27;45247;-70
2022/01/18 02:12:35;;;;;;;;;36.00;26.50;;;;;4.56;99.80;103483.34;5079534;27;45513;-68
2022/01/18 02:15:10;;;;;;;;;36.25;29.75;;;;;4.58;99.17;103507.47;5079810;27;45304;-68
2022/01/18 02:23:24;;;;;;;;;23.00;19.75;;;;;4.52;99.34;103504.66;5079831;28;45278;-70
2022/01/18 02:25:50;;;;;;;;;33.50;27.75;;;;;4.55;99.73;103489.31;5078982;27;45513;-68
2022/01/18 02:28:18;;;;;;;;;29.25;23.00;;;;;4.53;99.57;103483.22;5079259;27;45224;-68
2022/01/18 02:30:44;;;;;;;;;23.25;20.00;;;;;4.54;99.39;103492.72;5079360;27;45810;-71
2022/01/18 02:33:10;;;;;;;;;34.75;25.50;;;;;4.54;99.23;103487.56;5079609;27;45345;-71
2022/01/18 02:35:36;;;;;;;;;24.50;22.75;;;;;4.51;99.94;103481.41;5081475;27;45344;-71
2022/01/18 02:38:03;;;;;;;;;25.00;22.00;;;;;4.48;99.97;103478.72;5082807;28;45342;-70
2022/01/18 02:40:30;;;;;;;;;22.75;18.00;;;;;4.43;100.00;103493.97;5082801;27;45223;-70
2022/01/18 02:43:46;;;;;;;;;26.00;18.75;;;;;4.43;100.00;103491.41;5082844;27;45428;-70
2022/01/18 02:45:46;;;;;;;;;37.50;24.00;;;;;4.45;100.00;103470.88;5082889;28;45420;-73
2022/01/18 02:48:11;;;;;;;;;20.50;18.50;;;;;4.46;100.00;103478.66;5082551;27;45563;-70
2022/01/18 02:50:37;;;;;;;;;30.25;18.75;;;;;4.48;100.00;103492.47;5083236;27;45288;-70
2022/01/18 02:53:02;;;;;;;;;27.00;18.75;;;;;4.49;100.00;103483.03;5082858;27;45214;-70
2022/01/18 02:55:28;;;;;;;;;28.25;26.25;;;;;4.53;99.95;103496.09;5082772;27;45601;-70
2022/01/18 02:57:57;;;;;;;;;21.75;15.00;;;;;4.54;100.00;103487.56;5082409;27;45408;-70
2022/01/18 03:00:30;;;;;;;;;25.50;20.00;;;;;4.52;100.00;103481.47;5069948;27;45796;-70
2022/01/18 03:03:14;;;;;;;;;24.00;20.25;;;;;4.54;100.00;103476.38;5079144;28;45374;-70
2022/01/18 03:05:45;;;;;;;;;26.75;19.25;;;;;4.55;100.00;103471.28;5082705;27;45343;-70
2022/01/18 03:08:11;;;;;;;;;34.50;21.50;;;;;4.55;100.00;103468.72;5082125;28;45434;-70
2022/01/18 03:10:38;;;;;;;;;36.75;24.25;;;;;4.59;100.00;103465.44;5082320;27;45830;-70
2022/01/18 03:13:05;;;;;;;;;26.00;21.75;;;;;4.65;100.00;103463.97;5082105;28;45231;-70
2022/01/18 03:15:31;;;;;;;;;32.50;22.75;;;;;4.65;99.74;103454.53;5082293;27;45438;-69
2022/01/18 03:17:56;;;;;;;;;23.50;18.25;;;;;4.65;100.00;103439.09;5082381;27;46473;-70
2022/01/18 03:20:23;;;;;;;;;31.00;21.50;;;;;4.66;100.00;103443.41;5081882;28;45244;-70
2022/01/18 03:22:50;;;;;;;;;31.25;22.75;;;;;4.66;100.00;103447.69;5082533;27;45338;-69
2022/01/18 03:28:05;;;;;;;;;26.75;20.25;;;;;4.59;100.00;103439.69;5068413;28;45377;-70
2022/01/18 03:30:53;;;;;;;;;32.50;23.00;;;;;4.56;100.00;103442.16;5078353;28;45762;-69
2022/01/18 03:33:20;;;;;;;;;31.75;23.25;;;;;4.66;100.00;103445.13;5082408;28;45426;-69
2022/01/18 03:35:48;;;;;;;;;23.25;20.25;;;;;4.71;100.00;103441.88;5081974;27;45513;-69
2022/01/18 03:38:14;;;;;;;;;27.50;19.25;;;;;4.74;100.00;103441.13;5081922;27;46358;-69
2022/01/18 03:40:40;;;;;;;;;31.50;22.25;;;;;4.72;100.00;103437.63;5081563;28;45856;-69
2022/01/18 03:43:08;;;;;;;;;32.75;21.25;;;;;4.71;99.70;103423.88;5081794;27;45508;-70
2022/01/18 03:45:42;;;;;;;;;39.00;26.75;;;;;4.70;100.00;103434.09;5081396;28;45803;-73
2022/01/18 03:48:14;;;;;;;;;31.25;22.75;;;;;4.73;100.00;103449.69;5081679;27;46066;-73
2022/01/18 03:50:40;;;;;;;;;34.50;23.25;;;;;4.74;100.00;103448.84;5082049;27;45736;-73
2022/01/18 03:53:05;;;;;;;;;26.50;22.75;;;;;4.74;99.49;103436.84;5080538;28;45201;-74
2022/01/18 03:55:31;;;;;;;;;38.75;26.00;;;;;4.73;100.00;103447.09;5081780;27;45333;-73
2022/01/18 03:57:56;;;;;;;;;35.00;25.75;;;;;4.77;100.00;103443.81;5081247;27;45378;-72
2022/01/18 04:00:25;;;;;;;;;31.00;24.25;;;;;4.80;99.77;103441.38;5081458;27;45372;-68
2022/01/18 04:02:52;;;;;;;;;39.75;27.00;;;;;4.80;99.68;103443.94;5077144;27;45282;-68
2022/01/18 04:05:17;;;;;;;;;31.00;23.00;;;;;4.83;100.00;103441.50;5080892;27;45182;-68
2022/01/18 04:07:43;;;;;;;;;30.25;24.25;;;;;4.83;100.00;103438.94;5080647;27;46280;-68
2022/01/18 04:10:09;;;;;;;;;36.25;25.00;;;;;4.82;99.86;103432.03;5080819;28;45286;-68
2022/01/18 04:12:35;;;;;;;;;42.50;28.00;;;;;4.82;99.60;103438.06;5080655;27;45233;-68
2022/01/18 04:15:07;;;;;;;;;34.25;23.50;;;;;4.85;100.00;103434.72;5079435;27;45504;-69
2022/01/18 04:30:58;;;;;;;;;33.75;24.75;;;;;4.93;99.66;103446.19;5078492;28;45544;-69
2022/01/18 04:33:23;;;;;;;;;45.00;26.75;;;;;4.92;99.21;103434.13;5079074;27;45487;-69
2022/01/18 04:35:49;;;;;;;;;46.75;34.50;;;;;4.85;99.50;103447.59;5079861;28;45598;-70
2022/01/18 04:38:15;;;;;;;;;40.25;26.00;;;;;4.75;99.63;103451.50;5080931;27;45448;-70
2022/01/18 04:40:44;;;;;;;;;38.00;24.75;;;;;4.65;99.60;103438.19;5096204;27;45270;-70
2022/01/18 04:50:50;;;;;;;;;35.00;20.25;;;;;4.44;100.00;103425.34;5081176;27;45256;-69
2022/01/18 04:53:16;;;;;;;;;33.50;18.75;;;;;4.42;100.00;103429.56;5080930;27;45322;-69
2022/01/18 04:55:42;;;;;;;;;33.25;19.00;;;;;4.46;100.00;103432.31;5080675;27;45436;-68
2022/01/18 04:58:07;;;;;;;;;32.25;22.75;;;;;4.47;100.00;103433.19;5079301;28;45461;-68
2022/01/18 05:00:33;;;;;;;;;30.00;19.00;;;;;4.44;99.92;103431.38;5080530;27;45349;-68
2022/01/18 05:02:58;;;;;;;;;25.50;19.50;;;;;4.41;100.00;103438.09;5079996;27;45270;-68
2022/01/18 05:05:26;;;;;;;;;26.50;22.00;;;;;4.43;100.00;103437.34;5076581;27;45593;-69
2022/01/18 05:07:53;;;;;;;;;31.75;20.25;;;;;4.46;100.00;103439.16;5077657;28;46116;-68
2022/01/18 05:10:22;;;;;;;;;34.50;22.50;;;;;4.45;100.00;103438.28;5080079;27;45312;-68
2022/01/18 05:12:50;;;;;;;;;48.50;27.50;;;;;4.43;100.00;103439.91;5079815;27;45464;-69
2022/01/18 05:18:55;;;;;;;;;30.00;21.50;;;;;4.39;100.00;103438.00;5080170;28;45373;-68
2022/01/18 05:23:27;;;;;;;;;32.50;23.50;;;;;4.32;100.00;103433.44;5080408;28;45347;-68
2022/01/18 05:25:53;;;;;;;;;19.75;19.00;;;;;4.32;100.00;103428.28;5079887;27;45329;-66
2022/01/18 05:28:18;;;;;;;;;38.50;27.75;;;;;4.37;100.00;103438.75;5079917;27;46306;-66
2022/01/18 05:30:44;;;;;;;;;36.00;26.25;;;;;4.42;100.00;103435.56;5079900;27;45362;-67
2022/01/18 05:33:09;;;;;;;;;33.25;25.25;;;;;4.45;100.00;103439.97;5080531;28;45453;-68
2022/01/18 05:35:34;;;;;;;;;32.25;22.75;;;;;4.41;100.00;103426.09;5079870;27;45329;-70
2022/01/18 05:38:00;;;;;;;;;30.25;21.25;;;;;4.38;100.00;103431.09;5078519;28;47215;-70
2022/01/18 05:40:26;;;;;;;;;24.25;14.75;;;;;4.35;99.81;103430.97;5079814;27;45145;-70
2022/01/18 05:42:51;;;;;;;;;36.50;26.50;;;;;4.30;100.00;103421.31;5078821;28;45431;-70
2022/01/18 05:45:18;;;;;;;;;30.75;19.75;;;;;4.27;100.00;103414.34;5079615;27;45228;-70
2022/01/18 05:47:43;;;;;;;;;34.00;22.00;;;;;4.25;100.00;103411.72;5079938;27;45280;-68
2022/01/18 05:50:11;;;;;;;;;27.00;24.00;;;;;4.25;100.00;103409.13;5078251;28;45270;-69
2022/01/18 05:52:36;;;;;;;;;33.75;23.50;;;;;4.21;100.00;103406.38;5079817;27;45354;-68
2022/01/18 05:55:03;;;;;;;;;32.75;22.50;;;;;4.23;100.00;103407.31;5079342;27;45382;-68
2022/01/18 05:57:30;;;;;;;;;25.75;19.75;;;;;4.21;100.00;103414.97;5079415;27;45438;-68
2022/01/18 06:00:02;;;;;;;;;23.75;19.00;;;;;4.19;100.00;103414.00;5079246;27;45707;-69
2022/01/18 06:02:41;;;;;;;;;30.25;18.00;;;;;4.18;100.00;103413.94;5079732;28;45507;-68
2022/01/18 06:07:52;;;;;;;;;30.25;22.00;;;;;4.11;99.62;103401.66;5070183;28;45712;-68
2022/01/18 06:10:18;;;;;;;;;24.25;17.25;;;;;4.11;99.53;103410.25;5082403;27;45199;-70
2022/01/18 06:12:43;;;;;;;;;31.00;25.25;;;;;4.11;100.00;103410.25;5082227;28;45397;-72
2022/01/18 06:15:09;;;;;;;;;28.75;23.75;;;;;4.09;99.30;103406.75;5083008;27;45487;-68
2022/01/18 06:17:35;;;;;;;;;25.50;23.00;;;;;4.06;99.28;103418.59;5082564;28;45168;-71
2022/01/18 06:20:00;;;;;;;;;27.75;22.75;;;;;4.04;99.57;103425.38;5081492;28;45230;-69
2022/01/18 06:22:26;;;;;;;;;24.50;24.25;;;;;3.98;99.66;103426.84;5082845;28;45308;-73
2022/01/18 06:24:51;;;;;;;;;34.50;25.75;;;;;3.97;100.00;103426.78;5082183;27;46174;-69
2022/01/18 06:27:17;;;;;;;;;36.75;21.00;;;;;3.94;99.25;103434.38;5081410;27;45905;-75
2022/01/18 06:29:42;;;;;;;;;26.00;22.25;;;;;3.95;100.00;103436.13;5082376;27;45315;-65
2022/01/18 06:32:08;;;;;;;;;22.25;15.50;;;;;3.98;99.59;103437.13;5082267;27;45292;-66
2022/01/18 06:34:34;;;;;;;;;29.75;23.00;;;;;3.95;99.66;103426.72;5082171;27;46083;-69
2022/01/18 06:36:59;;;;;;;;;25.25;24.25;;;;;3.92;99.48;103439.47;5080100;28;47108;-70
2022/01/18 06:39:25;;;;;;;;;29.50;18.50;;;;;3.94;99.92;103436.94;5081279;27;45545;-71
2022/01/18 06:41:50;;;;;;;;;28.75;22.00;;;;;3.96;99.86;103435.31;5080919;28;45625;-68
2022/01/18 06:44:16;;;;;;;;;29.75;27.00;;;;;3.96;100.00;103436.19;5081981;27;45520;-76
2022/01/18 06:46:42;;;;;;;;;27.75;22.00;;;;;4.02;99.87;103437.31;5081748;27;45422;-75
2022/01/18 06:49:07;;;;;;;;;32.50;23.25;;;;;4.00;99.73;103442.34;5082012;27;45525;-74
2022/01/18 06:51:34;;;;;;;;;28.00;24.00;;;;;4.02;99.75;103439.88;5082218;27;45362;-73
2022/01/18 06:53:59;;;;;;;;;32.50;19.00;;;;;4.00;99.58;103438.91;5082438;28;45231;-73
2022/01/18 06:56:28;;;;;;;;;28.75;22.50;;;;;3.97;99.72;103442.22;5081593;27;45889;-75
2022/01/18 06:58:54;;;;;;;;;18.50;18.50;;;;;3.97;100.00;103439.66;5088301;27;45880;-75
2022/01/18 07:01:21;;;;;;;;;24.00;18.00;;;;;4.00;99.74;103438.91;5081039;28;45289;-71
2022/01/18 07:03:48;;;;;;;;;25.00;22.50;;;;;3.94;99.69;103434.38;5082405;27;45265;-76
2022/01/18 07:06:14;;;;;;;;;32.50;23.50;;;;;3.93;99.58;103442.91;5082077;27;46977;-78
2022/01/18 07:08:40;;;;;;;;;29.00;22.75;;;;;3.91;99.86;103442.84;5082773;27;45302;-78
2022/01/18 07:11:06;;;;;;;;;34.50;23.25;;;;;3.91;99.97;103437.72;5079518;27;45628;-69
2022/01/18 07:13:31;;;;;;;;;31.50;22.25;;;;;3.89;100.00;103431.63;5097445;27;45409;-71
2022/01/18 07:15:57;;;;;;;;;19.25;18.25;;;;;3.89;99.75;103431.63;5081958;27;45987;-69
2022/01/18 07:18:23;;;;;;;;;35.00;25.00;;;;;3.85;100.00;103422.00;5082040;27;45269;-69
2022/01/18 07:20:48;;;;;;;;;25.00;17.25;;;;;3.83;100.00;103415.94;5079804;28;45370;-68
2022/01/18 07:23:14;;;;;;;;;32.50;25.50;;;;;3.81;100.00;103420.13;5081664;27;45511;-67
2022/01/18 07:25:45;;;;;;;;;27.00;25.75;;;;;3.83;100.00;103426.22;5081241;27;46151;-71
2022/01/18 07:28:12;;;;;;;;;35.75;26.00;;;;;3.82;100.00;103426.16;5081498;27;45212;-75
2022/01/18 07:30:38;;;;;;;;;40.50;29.00;;;;;3.76;100.00;103429.31;5081952;28;45267;-70
2022/01/18 07:33:05;;;;;;;;;29.75;21.75;;;;;3.70;100.00;103423.03;5081961;27;45369;-71
2022/01/18 07:35:33;;;;;;;;;31.50;22.25;;;;;3.60;100.00;103426.88;5081446;27;45461;-71
2022/01/18 07:38:00;;;;;;;;;32.50;27.00;;;;;3.58;100.00;103415.66;5080649;27;45271;-72
2022/01/18 07:40:26;;;;;;;;;42.75;31.50;;;;;3.60;100.00;103412.38;5080655;28;46378;-71
2022/01/18 07:42:52;;;;;;;;;24.50;20.50;;;;;3.62;100.00;103405.59;5081264;28;45518;-70
2022/01/18 07:45:17;;;;;;;;;33.50;27.00;;;;;3.66;100.00;103412.63;5080901;27;45382;-71
2022/01/18 07:47:43;;;;;;;;;37.00;29.50;;;;;3.70;100.00;103418.78;5081511;27;45283;-71
2022/01/18 07:50:08;;;;;;;;;36.25;25.00;;;;;3.69;100.00;103413.56;5081139;27;45434;-71
2022/01/18 07:52:35;;;;;;;;;44.00;37.00;;;;;3.66;100.00;103399.75;5081217;27;45477;-71
2022/01/18 07:55:05;;;;;;;;;36.75;32.75;;;;;3.70;100.00;103397.31;5080560;27;46294;-71
2022/01/18 07:57:30;;;;;;;;;44.50;29.50;;;;;3.77;100.00;103409.63;5081412;27;45835;-71
2022/01/18 07:59:56;;;;;;;;;45.50;34.00;;;;;3.77;100.00;103407.94;5081352;28;45227;-71
2022/01/18 08:02:22;;;;;;;;;46.00;33.00;;;;;3.83;100.00;103417.63;5081284;27;45434;-72
2022/01/18 08:04:47;;;;;;;;;53.00;38.75;;;;;3.87;100.00;103407.53;5080836;27;46700;-71
2022/01/18 08:07:12;;;;;;;;;49.50;38.25;;;;;3.94;100.00;103401.81;5080980;27;45272;-71
2022/01/18 08:09:38;;;;;;;;;56.00;42.00;;;;;4.03;100.00;103403.91;5081001;27;45474;-72
2022/01/18 08:12:07;;;;;;;;;45.75;33.00;;;;;4.11;100.00;103396.50;5078067;27;45366;-72
2022/01/18 08:14:33;;;;;;;;;45.50;31.75;;;;;4.13;100.00;103402.59;5080386;28;46052;-71
2022/01/18 08:17:00;;;;;;;;;31.75;25.75;;;;;4.19;100.00;103401.13;5081141;27;45803;-71
2022/01/18 08:19:31;;;;;;;;;29.50;26.25;;;;;4.27;100.00;103402.34;5068617;28;45282;-71
2022/01/18 08:21:57;;;;;;;;;32.50;27.00;;;;;4.35;100.00;103404.34;5080567;27;45206;-71
2022/01/18 08:24:23;;;;;;;;;40.25;32.25;;;;;4.40;100.00;103408.88;5080969;28;46363;-71
2022/01/18 08:26:48;;;;;;;;;41.75;38.00;;;;;4.48;100.00;103410.06;5075349;28;45267;-71
2022/01/18 08:29:14;;;;;;;;;34.25;24.50;;;;;4.57;100.00;103413.00;5079430;28;45493;-71
2022/01/18 08:31:42;;;;;;;;;40.50;29.75;;;;;4.65;100.00;103404.72;5080129;27;45442;-71
2022/01/18 08:34:08;;;;;;;;;39.25;28.00;;;;;4.70;100.00;103421.22;5079697;27;45965;-72
2022/01/18 08:36:34;;;;;;;;;36.25;31.25;;;;;4.76;100.00;103416.31;5080327;27;45440;-72
2022/01/18 08:39:00;;;;;;;;;33.50;29.50;;;;;4.82;100.00;103417.44;5079137;28;45252;-71
2022/01/18 08:41:26;;;;;;;;;43.25;33.25;;;;;4.89;100.00;103410.81;5080386;27;45384;-71
2022/01/18 08:43:53;;;;;;;;;32.00;26.25;;;;;4.98;100.00;103413.75;5079937;27;45571;-72
2022/01/18 08:46:18;;;;;;;;;33.25;26.50;;;;;5.06;99.98;103414.06;5080619;27;45157;-71
2022/01/18 08:48:44;;;;;;;;;35.50;23.00;;;;;5.07;100.00;103411.53;5080248;27;45259;-71
2022/01/18 08:51:09;;;;;;;;;42.75;31.50;;;;;5.08;99.77;103417.56;5080545;27;45246;-71
2022/01/18 08:53:35;;;;;;;;;36.25;29.00;;;;;5.12;98.16;103416.84;5079997;28;45335;-71
2022/01/18 08:56:01;;;;;;;;;36.00;27.25;;;;;5.10;99.39;103409.06;5080473;27;45477;-72
2022/01/18 08:58:27;;;;;;;;;38.75;27.25;;;;;5.16;99.49;103418.72;5080178;28;45264;-72
2022/01/18 09:00:53;;;;;;;;;30.00;26.25;;;;;5.23;99.36;103410.41;5080666;27;45331;-72
2022/01/18 09:03:19;;;;;;;;;27.25;23.25;;;;;5.29;99.91;103402.91;5079786;28;45498;-71
2022/01/18 09:05:45;;;;;;;;;32.00;23.50;;;;;5.34;99.87;103403.94;5080630;27;45272;-72
2022/01/18 09:08:12;;;;;;;;;37.75;25.25;;;;;5.42;99.57;103399.97;5080449;28;45324;-71
2022/01/18 09:10:40;;;;;;;;;40.75;29.00;;;;;5.49;98.68;103399.34;5080042;28;45395;-71
2022/01/18 09:13:05;;;;;;;;;34.75;28.00;;;;;5.62;98.96;103410.13;5077782;27;45266;-71
2022/01/18 09:15:31;;;;;;;;;36.50;30.50;;;;;5.78;99.26;103408.09;5057627;28;45340;-72
2022/01/18 09:17:56;;;;;;;;;36.25;25.00;;;;;5.97;98.76;103411.34;5060033;28;45436;-71
2022/01/18 09:20:24;;;;;;;;;35.50;27.25;;;;;6.09;98.70;103406.63;5058269;28;45391;-71
2022/01/18 09:22:52;;;;;;;;;35.00;28.75;;;;;6.17;97.99;103400.00;5047987;28;45268;-72
2022/01/18 09:25:28;;;;;;;;;31.75;25.00;;;;;6.30;98.30;103404.75;5058473;28;45366;-71
2022/01/18 09:27:55;;;;;;;;;39.50;29.00;;;;;6.40;97.96;103401.63;5046084;28;45260;-71
2022/01/18 09:30:26;;;;;;;;;34.00;27.00;;;;;6.51;97.66;103409.72;5058241;28;45449;-72
2022/01/18 09:32:53;;;;;;;;;34.25;29.00;;;;;6.64;96.86;103403.25;5059890;28;45258;-71
2022/01/18 09:35:19;;;;;;;;;35.75;29.50;;;;;6.69;97.10;103404.28;5059714;28;45480;-72
2022/01/18 09:37:45;;;;;;;;;36.00;28.50;;;;;6.75;96.77;103404.47;5059811;28;45422;-71
2022/01/18 09:40:14;;;;;;;;;38.50;26.50;;;;;6.80;96.61;103394.25;5059350;28;45272;-73
2022/01/18 09:42:43;;;;;;;;;34.75;25.25;;;;;6.88;94.14;103398.84;5057887;28;47057;-72
2022/01/18 09:45:12;;;;;;;;;36.50;29.50;;;;;6.97;96.51;103396.53;5058691;28;45437;-72
2022/01/18 09:47:40;;;;;;;;;37.25;30.75;;;;;7.07;96.10;103396.81;5059959;28;45367;-72
2022/01/18 09:50:08;;;;;;;;;37.50;28.25;;;;;7.21;95.90;103403.28;5059182;28;45306;-72
2022/01/18 09:52:33;;;;;;;;;34.25;27.50;;;;;7.41;96.75;103404.72;5059209;28;45428;-72
2022/01/18 09:55:01;;;;;;;;;35.25;25.00;;;;;8.30;98.15;103410.53;5059205;28;45175;-72
2022/01/18 09:57:27;;;;;;;;;39.75;29.50;;;;;9.33;95.33;103408.56;5059716;28;45438;-71
2022/01/18 09:59:52;;;;;;;;;36.00;30.50;;;;;10.17;88.38;103400.63;5058836;28;45537;-72
2022/01/18 10:02:19;;;;;;;;;32.75;27.25;;;;;10.56;89.00;103409.94;5059200;28;46094;-72
2022/01/18 10:04:45;;;;;;;;;31.00;24.00;;;;;10.51;89.26;103398.59;5059107;28;45798;-72
2022/01/18 10:07:10;;;;;;;;;35.50;30.00;;;;;10.46;90.67;103393.34;5059606;28;45299;-72
2022/01/18 10:09:37;;;;;;;;;33.25;27.50;;;;;10.84;89.42;103398.22;5057475;28;45741;-72
2022/01/18 10:12:12;;;;;;;;;42.75;34.25;;;;;10.78;86.39;103398.13;5058854;28;46353;-72
2022/01/18 10:14:50;;;;;;;;;29.25;24.50;;;;;10.60;86.07;103398.72;5046100;28;45237;-72
2022/01/18 10:17:31;;;;;;;;;36.75;27.50;;;;;10.52;83.46;103395.16;5058758;28;45219;-72
2022/01/18 10:20:20;;;;;;;;;31.50;25.50;;;;;11.28;88.47;103389.25;5059255;28;45604;-72
2022/01/18 10:22:49;;;;;;;;;36.75;30.00;;;;;11.84;82.32;103383.84;5059084;28;46327;-72
2022/01/18 10:25:19;;;;;;;;;30.00;23.75;;;;;11.76;82.81;103377.63;5058907;28;45939;-73
2022/01/18 10:27:47;;;;;;;;;35.75;29.25;;;;;11.84;73.32;103380.34;5058325;28;45234;-71
2022/01/18 10:30:21;;;;;;;;;34.75;29.50;;;;;12.30;81.79;103373.78;5058558;28;45469;-73
2022/01/18 10:33:12;;;;;;;;;40.50;31.00;;;;;13.20;81.50;103376.06;5058580;28;46476;-73
2022/01/18 10:36:16;;;;;;;;;39.25;31.75;;;;;14.30;77.58;103364.91;5058888;28;45802;-72
2022/01/18 10:38:44;;;;;;;;;37.00;30.00;;;;;14.18;76.31;103364.91;5057331;28;45412;-71
2022/01/18 10:41:23;;;;;;;;;32.25;26.50;;;;;13.93;76.67;103360.53;5058782;28;45182;-72
2022/01/18 10:44:23;;;;;;;;;31.50;26.75;;;;;14.42;78.17;103350.94;5058327;28;45557;-72
2022/01/18 10:46:54;;;;;;;;;31.00;24.50;;;;;15.39;75.33;103346.22;5041214;28;45288;-72
2022/01/18 10:49:44;;;;;;;;;33.00;25.25;;;;;15.20;72.50;103345.44;5058767;28;45430;-72
2022/01/18 10:52:15;;;;;;;;;38.50;33.75;;;;;15.08;73.68;103338.53;5058591;28;45448;-72
2022/01/18 10:54:46;;;;;;;;;36.50;25.25;;;;;14.91;73.73;103328.13;5058013;28;45284;-72
2022/01/18 10:57:25;;;;;;;;;28.50;25.00;;;;;15.30;74.72;103318.34;5060931;28;45304;-72
2022/01/18 11:00:06;;;;;;;;;33.00;27.00;;;;;16.11;71.96;103315.13;5057873;28;45510;-72
2022/01/18 11:02:34;;;;;;;;;28.50;24.00;;;;;15.60;69.23;103313.78;5061290;28;45493;-72
2022/01/18 11:05:10;;;;;;;;;32.00;25.75;;;;;14.95;69.02;103304.53;5059981;28;48078;-73
2022/01/18 11:07:37;;;;;;;;;31.00;26.50;;;;;14.44;70.90;103307.38;5061404;28;45480;-72
2022/01/18 11:10:05;;;;;;;;;31.50;21.50;;;;;14.12;70.67;103298.66;5061260;28;45217;-72
2022/01/18 11:12:49;;;;;;;;;24.50;21.75;;;;;14.65;71.64;103282.88;5060451;28;45442;-73
2022/01/18 11:15:19;;;;;;;;;27.00;23.25;;;;;14.94;69.09;103274.00;5060856;28;45465;-73
2022/01/18 11:17:50;;;;;;;;;26.00;21.75;;;;;15.08;69.12;103277.44;5061264;28;45784;-72
2022/01/18 11:20:18;;;;;;;;;32.00;22.25;;;;;16.28;63.93;103281.72;5061367;28;45237;-73
2022/01/18 11:22:45;;;;;;;;;29.50;24.75;;;;;15.92;65.10;103277.69;5048965;28;45581;-72
2022/01/18 11:25:10;;;;;;;;;23.25;19.00;;;;;15.63;64.80;103264.84;5060922;28;46113;-72
2022/01/18 11:27:36;;;;;;;;;26.00;20.00;;;;;17.06;66.49;103262.38;5059043;28;45472;-73
2022/01/18 11:30:06;;;;;;;;;26.50;20.50;;;;;17.22;64.00;103257.75;5061155;28;45248;-72
2022/01/18 11:32:32;;;;;;;;;25.50;19.50;;;;;17.25;63.00;103250.72;5060901;28;45509;-72
2022/01/18 11:35:15;;;;;;;;;24.75;19.25;;;;;16.76;60.99;103249.66;5061043;28;45928;-72
2022/01/18 11:38:09;;;;;;;;;21.50;18.50;;;;;16.63;63.54;103241.06;5049778;28;45651;-72
2022/01/18 11:40:49;;;;;;;;;18.00;18.00;;;;;18.12;59.24;103229.94;5061152;28;45248;-72
2022/01/18 11:43:31;;;;;;;;;21.75;15.75;;;;;18.97;51.71;103224.66;5060650;28;45303;-72
2022/01/18 11:45:57;;;;;;;;;21.75;15.00;;;;;18.68;57.86;103222.69;5060835;28;45353;-72
2022/01/18 11:48:23;;;;;;;;;19.00;15.75;;;;;17.79;51.86;103224.41;5060560;28;45410;-72
2022/01/18 11:51:01;;;;;;;;;21.50;16.75;;;;;16.94;58.48;103226.63;5061523;28;45459;-72
2022/01/18 11:53:39;;;;;;;;;16.25;14.25;;;;;16.35;58.60;103225.63;5059075;28;46196;-73
2022/01/18 11:56:09;;;;;;;;;17.00;14.00;;;;;16.49;58.23;103219.34;5060520;28;46114;-72
2022/01/18 11:58:35;;;;;;;;;17.75;15.50;;;;;17.90;60.06;103218.97;5060660;28;45332;-72
2022/01/18 12:01:02;;;;;;;;;23.00;17.75;;;;;18.58;58.35;103203.53;5058919;28;45252;-72
2022/01/18 12:03:58;;;;;;;;;17.25;12.75;;;;;20.38;51.15;103211.31;5059945;28;45258;-72
2022/01/18 12:06:46;;;;;;;;;21.75;20.00;;;;;21.06;51.02;103198.69;5050631;28;45714;-72
2022/01/18 12:09:40;;;;;;;;;14.75;12.25;;;;;19.06;51.02;103200.75;5060824;28;45612;-72
2022/01/18 12:12:41;;;;;;;;;19.00;14.00;;;;;17.20;52.84;103194.72;5060747;28;45201;-72
2022/01/18 12:15:15;;;;;;;;;15.75;12.75;;;;;16.07;55.42;103183.13;5060421;28;45418;-73
2022/01/18 12:18:12;;;;;;;;;20.00;15.25;;;;;15.12;58.39;103177.00;5060014;28;45349;-74
2022/01/18 12:20:37;;;;;;;;;16.25;11.75;;;;;14.31;58.01;103169.59;5060254;28;45180;-75
2022/01/18 12:23:04;;;;;;;;;15.25;12.75;;;;;13.72;58.02;103168.00;5058640;28;45413;-74
2022/01/18 12:25:34;;;;;;;;;19.00;13.75;;;;;13.27;60.80;103166.31;5056132;28;45541;-73
2022/01/18 12:34:32;;;;;;;;;13.50;11.25;;;;;12.53;63.53;103153.97;5055903;28;45215;-72
2022/01/18 12:37:21;;;;;;;;;17.00;12.50;;;;;12.33;63.54;103144.34;5055170;28;45297;-75
2022/01/18 12:40:11;;;;;;;;;17.00;12.00;;;;;12.24;63.97;103139.09;5060672;28;46024;-74
2022/01/18 12:45:15;;;;;;;;;15.00;10.00;;;;;12.01;63.32;103136.38;5058859;28;45482;-74